CSZ4602 ZSJN-ZGHA
Flight info
| Callsign | CSZ4602 |
|---|---|
| Flight time | N/A |
| Altitude | 36100 |
| Route | EXUVU W4 IPNIT W37 GUSIV |
| Aircraft | A20N/M-SDE2E3FGHIRWXY/LB1 |
Departure
| Time | N/A |
|---|---|
| Airport | Jinan Yaoqiang International Airport (ZSJN) |
Arrival
| Time | 2026-05-09 07:34 |
|---|---|
| Airport | Changsha Huanghua International Airport (ZGHA) |
| Time | Latitude | Longitude | Altitude | Speed | Heading |
|---|---|---|---|---|---|
| 2026-05-09 07:02 | 30.33242 | 114.03081 | 27639 ft | 441 kts | 207° |
| 2026-05-09 07:02 | 30.30457 | 114.01582 | 27639 ft | 441 kts | 207° |
| 2026-05-09 07:03 | 30.27641 | 114.00068 | 27639 ft | 441 kts | 207° |
| 2026-05-09 07:03 | 30.24833 | 113.98558 | 27639 ft | 441 kts | 207° |
| 2026-05-09 07:03 | 30.22019 | 113.97049 | 27639 ft | 441 kts | 207° |
| 2026-05-09 07:03 | 30.19268 | 113.95576 | 27639 ft | 441 kts | 207° |
| 2026-05-09 07:04 | 30.16499 | 113.94094 | 27639 ft | 441 kts | 207° |
| 2026-05-09 07:04 | 30.13710 | 113.92602 | 27434 ft | 440 kts | 207° |
| 2026-05-09 07:04 | 30.10973 | 113.91139 | 27187 ft | 438 kts | 207° |
| 2026-05-09 07:04 | 30.08205 | 113.89660 | 26935 ft | 437 kts | 207° |
| 2026-05-09 07:05 | 30.05442 | 113.88184 | 26683 ft | 435 kts | 207° |
| 2026-05-09 07:05 | 30.02697 | 113.86719 | 26432 ft | 434 kts | 207° |
| 2026-05-09 07:05 | 29.99997 | 113.85279 | 26184 ft | 433 kts | 207° |
| 2026-05-09 07:05 | 29.97272 | 113.83826 | 25934 ft | 432 kts | 207° |
| 2026-05-09 07:06 | 29.94546 | 113.82374 | 25682 ft | 430 kts | 207° |
| 2026-05-09 07:06 | 29.91848 | 113.80936 | 25433 ft | 429 kts | 207° |
| 2026-05-09 07:06 | 29.89141 | 113.79504 | 25181 ft | 428 kts | 206° |
| 2026-05-09 07:06 | 29.86413 | 113.78204 | 24931 ft | 428 kts | 203° |
| 2026-05-09 07:07 | 29.83616 | 113.77062 | 24680 ft | 427 kts | 201° |
| 2026-05-09 07:07 | 29.80815 | 113.75970 | 24430 ft | 426 kts | 201° |
| 2026-05-09 07:07 | 29.78007 | 113.74877 | 24178 ft | 424 kts | 201° |
| 2026-05-09 07:07 | 29.75227 | 113.73795 | 23928 ft | 423 kts | 201° |
| 2026-05-09 07:08 | 29.72438 | 113.72708 | 23676 ft | 422 kts | 201° |
| 2026-05-09 07:08 | 29.69700 | 113.71641 | 23419 ft | 421 kts | 200° |
| 2026-05-09 07:08 | 29.66942 | 113.70565 | 23148 ft | 419 kts | 200° |
| 2026-05-09 07:08 | 29.64174 | 113.69486 | 22787 ft | 417 kts | 200° |
| 2026-05-09 07:09 | 29.61463 | 113.68430 | 22357 ft | 414 kts | 200° |
| 2026-05-09 07:09 | 29.58760 | 113.67376 | 21895 ft | 411 kts | 200° |
| 2026-05-09 07:09 | 29.56052 | 113.66320 | 21418 ft | 408 kts | 200° |
| 2026-05-09 07:09 | 29.53376 | 113.65278 | 20939 ft | 405 kts | 200° |
| 2026-05-09 07:10 | 29.50754 | 113.64256 | 20468 ft | 402 kts | 200° |
| 2026-05-09 07:10 | 29.48126 | 113.63233 | 19997 ft | 398 kts | 200° |
| 2026-05-09 07:10 | 29.45495 | 113.62209 | 19524 ft | 396 kts | 200° |
| 2026-05-09 07:10 | 29.42930 | 113.61212 | 19065 ft | 393 kts | 200° |
| 2026-05-09 07:11 | 29.40345 | 113.60208 | 18598 ft | 390 kts | 200° |
| 2026-05-09 07:11 | 29.37801 | 113.59220 | 18138 ft | 387 kts | 200° |
| 2026-05-09 07:11 | 29.35286 | 113.58244 | 17682 ft | 385 kts | 200° |
| 2026-05-09 07:11 | 29.32748 | 113.57259 | 17219 ft | 382 kts | 200° |
| 2026-05-09 07:12 | 29.30251 | 113.56291 | 16760 ft | 380 kts | 200° |
| 2026-05-09 07:12 | 29.27746 | 113.55321 | 16300 ft | 377 kts | 200° |
| 2026-05-09 07:12 | 29.25284 | 113.54367 | 15847 ft | 375 kts | 199° |
| 2026-05-09 07:12 | 29.22828 | 113.53416 | 15397 ft | 374 kts | 200° |
| 2026-05-09 07:13 | 29.20368 | 113.52454 | 14946 ft | 374 kts | 200° |
| 2026-05-09 07:13 | 29.17916 | 113.51489 | 14494 ft | 371 kts | 200° |
| 2026-05-09 07:13 | 29.15487 | 113.50528 | 14043 ft | 369 kts | 200° |
| 2026-05-09 07:13 | 29.13097 | 113.49580 | 13597 ft | 366 kts | 200° |
| 2026-05-09 07:14 | 29.10709 | 113.48631 | 13147 ft | 364 kts | 200° |
| 2026-05-09 07:14 | 29.08326 | 113.47676 | 12647 ft | 362 kts | 200° |
| 2026-05-09 07:14 | 29.05967 | 113.46723 | 12574 ft | 361 kts | 200° |
| 2026-05-09 07:14 | 29.03613 | 113.45767 | 12573 ft | 362 kts | 200° |
| 2026-05-09 07:15 | 29.01219 | 113.44856 | 12562 ft | 363 kts | 193° |
| 2026-05-09 07:15 | 28.98731 | 113.44782 | 12298 ft | 360 kts | 167° |
| 2026-05-09 07:15 | 28.96500 | 113.45940 | 12042 ft | 355 kts | 142° |
| 2026-05-09 07:15 | 28.94771 | 113.47939 | 11798 ft | 352 kts | 128° |
| 2026-05-09 07:16 | 28.93241 | 113.50101 | 11548 ft | 350 kts | 128° |
| 2026-05-09 07:16 | 28.91715 | 113.52240 | 11299 ft | 348 kts | 129° |
| 2026-05-09 07:16 | 28.90159 | 113.54356 | 11048 ft | 347 kts | 129° |
| 2026-05-09 07:16 | 28.88598 | 113.56420 | 10800 ft | 345 kts | 130° |
| 2026-05-09 07:17 | 28.87032 | 113.58454 | 10509 ft | 339 kts | 130° |
| 2026-05-09 07:17 | 28.85478 | 113.60460 | 10184 ft | 332 kts | 130° |
| 2026-05-09 07:17 | 28.83971 | 113.62400 | 9860 ft | 325 kts | 131° |
| 2026-05-09 07:17 | 28.82500 | 113.64296 | 9641 ft | 315 kts | 131° |
| 2026-05-09 07:18 | 28.81066 | 113.66140 | 9508 ft | 303 kts | 131° |
| 2026-05-09 07:18 | 28.79692 | 113.67907 | 9377 ft | 292 kts | 130° |
| 2026-05-09 07:18 | 28.78373 | 113.69605 | 9252 ft | 283 kts | 131° |
| 2026-05-09 07:18 | 28.77087 | 113.71260 | 9128 ft | 283 kts | 130° |
| 2026-05-09 07:19 | 28.75773 | 113.72946 | 9002 ft | 282 kts | 133° |
| 2026-05-09 07:19 | 28.74268 | 113.74345 | 8868 ft | 283 kts | 150° |
| 2026-05-09 07:19 | 28.72446 | 113.75158 | 8744 ft | 285 kts | 167° |
| 2026-05-09 07:19 | 28.70461 | 113.75317 | 8622 ft | 285 kts | 181° |
| 2026-05-09 07:20 | 28.68489 | 113.75163 | 8499 ft | 285 kts | 184° |
| 2026-05-09 07:20 | 28.66540 | 113.74971 | 8376 ft | 283 kts | 184° |
| 2026-05-09 07:20 | 28.64585 | 113.74789 | 8250 ft | 283 kts | 183° |
| 2026-05-09 07:20 | 28.62607 | 113.74624 | 8123 ft | 283 kts | 182° |
| 2026-05-09 07:21 | 28.60657 | 113.74487 | 7999 ft | 282 kts | 182° |
| 2026-05-09 07:21 | 28.58710 | 113.74359 | 7877 ft | 281 kts | 182° |
| 2026-05-09 07:21 | 28.56766 | 113.74232 | 7750 ft | 280 kts | 182° |
| 2026-05-09 07:21 | 28.54819 | 113.74103 | 7626 ft | 279 kts | 182° |
| 2026-05-09 07:22 | 28.52891 | 113.73974 | 7498 ft | 280 kts | 182° |
| 2026-05-09 07:22 | 28.50957 | 113.73846 | 7375 ft | 278 kts | 182° |
| 2026-05-09 07:22 | 28.49048 | 113.73721 | 7250 ft | 276 kts | 182° |
| 2026-05-09 07:22 | 28.47119 | 113.73590 | 7124 ft | 277 kts | 182° |
| 2026-05-09 07:23 | 28.45205 | 113.73463 | 6999 ft | 278 kts | 182° |
| 2026-05-09 07:23 | 28.43315 | 113.73094 | 6879 ft | 278 kts | 202° |
| 2026-05-09 07:23 | 28.41768 | 113.71828 | 6873 ft | 279 kts | 230° |
| 2026-05-09 07:23 | 28.40897 | 113.69847 | 6736 ft | 283 kts | 259° |
| 2026-05-09 07:24 | 28.40724 | 113.67641 | 6627 ft | 283 kts | 268° |
| 2026-05-09 07:24 | 28.40680 | 113.65404 | 6498 ft | 281 kts | 268° |
| 2026-05-09 07:24 | 28.40631 | 113.63183 | 6364 ft | 281 kts | 267° |
| 2026-05-09 07:24 | 28.40560 | 113.60979 | 6220 ft | 278 kts | 266° |
| 2026-05-09 07:25 | 28.40472 | 113.58778 | 6067 ft | 278 kts | 266° |
| 2026-05-09 07:25 | 28.40376 | 113.56587 | 5901 ft | 278 kts | 266° |
| 2026-05-09 07:25 | 28.40278 | 113.54401 | 5661 ft | 277 kts | 267° |
| 2026-05-09 07:25 | 28.40181 | 113.52228 | 5393 ft | 275 kts | 266° |
| 2026-05-09 07:26 | 28.40083 | 113.50050 | 5121 ft | 274 kts | 266° |
| 2026-05-09 07:26 | 28.39982 | 113.47900 | 4829 ft | 272 kts | 266° |
| 2026-05-09 07:26 | 28.39883 | 113.45751 | 4532 ft | 270 kts | 266° |
| 2026-05-09 07:26 | 28.39789 | 113.43660 | 4255 ft | 268 kts | 266° |
| 2026-05-09 07:27 | 28.39691 | 113.41545 | 3968 ft | 266 kts | 266° |
| 2026-05-09 07:27 | 28.39595 | 113.39465 | 3780 ft | 258 kts | 266° |
| 2026-05-09 07:27 | 28.39504 | 113.37481 | 3764 ft | 243 kts | 266° |
| 2026-05-09 07:27 | 28.39419 | 113.35628 | 3729 ft | 232 kts | 266° |
| 2026-05-09 07:28 | 28.39334 | 113.33781 | 3650 ft | 232 kts | 265° |
| 2026-05-09 07:28 | 28.39244 | 113.31977 | 3389 ft | 230 kts | 265° |
| 2026-05-09 07:28 | 28.39157 | 113.30306 | 3163 ft | 228 kts | 265° |
| 2026-05-09 07:28 | 28.39065 | 113.28529 | 2937 ft | 224 kts | 265° |
| 2026-05-09 07:29 | 28.38973 | 113.26741 | 2904 ft | 223 kts | 266° |
| 2026-05-09 07:29 | 28.38883 | 113.24983 | 2892 ft | 224 kts | 265° |
| 2026-05-09 07:29 | 28.38756 | 113.23230 | 2890 ft | 225 kts | 256° |
| 2026-05-09 07:29 | 28.38002 | 113.21742 | 2864 ft | 219 kts | 215° |
| 2026-05-09 07:30 | 28.36639 | 113.21184 | 2896 ft | 206 kts | 183° |
| 2026-05-09 07:30 | 28.35208 | 113.21240 | 2899 ft | 206 kts | 175° |
| 2026-05-09 07:30 | 28.33800 | 113.21405 | 2716 ft | 205 kts | 175° |
| 2026-05-09 07:30 | 28.32390 | 113.21538 | 2544 ft | 196 kts | 175° |
| 2026-05-09 07:31 | 28.31043 | 113.21631 | 2253 ft | 193 kts | 176° |
| 2026-05-09 07:31 | 28.29725 | 113.21708 | 1966 ft | 190 kts | 178° |
| 2026-05-09 07:31 | 28.28427 | 113.21782 | 1725 ft | 183 kts | 176° |
| 2026-05-09 07:31 | 28.27179 | 113.21858 | 1463 ft | 177 kts | 178° |
| 2026-05-09 07:32 | 28.25969 | 113.21931 | 1219 ft | 170 kts | 178° |
| 2026-05-09 07:32 | 28.24822 | 113.22001 | 1001 ft | 161 kts | 178° |
| 2026-05-09 07:32 | 28.23747 | 113.22067 | 789 ft | 152 kts | 178° |
| 2026-05-09 07:32 | 28.22710 | 113.22132 | 592 ft | 144 kts | 178° |
| 2026-05-09 07:33 | 28.21727 | 113.22179 | 404 ft | 141 kts | 179° |
| 2026-05-09 07:33 | 28.19720 | 113.22330 | 320 ft | 150 kts | 180° |
| 2026-05-09 07:33 | 28.18757 | 113.22357 | 223 ft | 120 kts | 163° |
| 2026-05-09 07:34 | 28.18103 | 113.22415 | 223 ft | 71 kts | 180° |
| 2026-05-09 07:34 | 28.17806 | 113.22358 | 222 ft | 22 kts | 254° |
| 2026-05-09 07:34 | 28.17800 | 113.22320 | 222 ft | 0 kts | 265° |
| 2026-05-09 07:34 | 28.17800 | 113.22314 | 222 ft | 1 kts | 265° |
| 2026-05-09 07:35 | 28.17800 | 113.22302 | 222 ft | 2 kts | 269° |
| 2026-05-09 07:35 | 28.17802 | 113.22282 | 222 ft | 2 kts | 285° |
| 2026-05-09 07:35 | 28.17814 | 113.22259 | 222 ft | 3 kts | 311° |
| 2026-05-09 07:35 | 28.17837 | 113.22243 | 222 ft | 4 kts | 340° |
| 2026-05-09 07:36 | 28.17872 | 113.22236 | 222 ft | 5 kts | 354° |
| 2026-05-09 07:36 | 28.17913 | 113.22233 | 222 ft | 6 kts | 357° |
| 2026-05-09 07:36 | 28.17962 | 113.22230 | 222 ft | 7 kts | 357° |
| 2026-05-09 07:36 | 28.18015 | 113.22227 | 222 ft | 8 kts | 352° |
| 2026-05-09 07:37 | 28.18063 | 113.22191 | 222 ft | 8 kts | 293° |
| 2026-05-09 07:37 | 28.18066 | 113.22118 | 222 ft | 9 kts | 267° |
| 2026-05-09 07:37 | 28.18075 | 113.22041 | 222 ft | 10 kts | 291° |
| 2026-05-09 07:37 | 28.18091 | 113.21960 | 222 ft | 10 kts | 271° |
| 2026-05-09 07:38 | 28.18094 | 113.21873 | 223 ft | 11 kts | 285° |
| 2026-05-09 07:38 | 28.18157 | 113.21835 | 223 ft | 11 kts | 356° |
| 2026-05-09 07:38 | 28.18239 | 113.21831 | 222 ft | 11 kts | 356° |
| 2026-05-09 07:38 | 28.18323 | 113.21825 | 222 ft | 12 kts | 356° |
| 2026-05-09 07:39 | 28.18411 | 113.21819 | 222 ft | 12 kts | 357° |
| 2026-05-09 07:39 | 28.18501 | 113.21814 | 223 ft | 13 kts | 356° |
| 2026-05-09 07:39 | 28.18594 | 113.21808 | 223 ft | 13 kts | 357° |
| 2026-05-09 07:39 | 28.18688 | 113.21802 | 223 ft | 13 kts | 356° |
| 2026-05-09 07:40 | 28.18785 | 113.21796 | 223 ft | 14 kts | 356° |
| 2026-05-09 07:40 | 28.18884 | 113.21789 | 223 ft | 14 kts | 359° |
| 2026-05-09 07:40 | 28.18983 | 113.21784 | 222 ft | 14 kts | 355° |
| 2026-05-09 07:40 | 28.19084 | 113.21778 | 222 ft | 14 kts | 355° |
| 2026-05-09 07:41 | 28.19138 | 113.21763 | 222 ft | 6 kts | 318° |
| 2026-05-09 07:41 | 28.19155 | 113.21714 | 222 ft | 7 kts | 277° |
| 2026-05-09 07:41 | 28.19151 | 113.21656 | 223 ft | 7 kts | 247° |
| 2026-05-09 07:41 | 28.19146 | 113.21647 | 222 ft | 0 kts | 234° |
| 2026-05-09 07:42 | 28.19140 | 113.21639 | 222 ft | 1 kts | 227° |
| 2026-05-09 07:42 | 28.19133 | 113.21629 | 222 ft | 0 kts | 226° |
| 2026-05-09 07:42 | 28.19129 | 113.21625 | 222 ft | 1 kts | 224° |
| 2026-05-09 07:42 | 28.19120 | 113.21615 | 222 ft | 2 kts | 224° |
| 2026-05-09 07:43 | 28.19106 | 113.21600 | 222 ft | 3 kts | 223° |
| 2026-05-09 07:43 | 28.19087 | 113.21581 | 222 ft | 4 kts | 220° |
| 2026-05-09 07:43 | 28.19073 | 113.21568 | 222 ft | 0 kts | 220° |